sensor_id;sensor_type;location;lat;lon;timestamp;pressure;altitude;pressure_sealevel;temperature;humidity
16738;BME280;17906;47.684;10.806;2022-09-09T00:01:07;93118.91;;;11.69;93.78
16738;BME280;17906;47.684;10.806;2022-09-09T00:03:40;93127.06;;;11.69;94.30
16738;BME280;17906;47.684;10.806;2022-09-09T00:06:15;93114.34;;;11.74;94.70
16738;BME280;17906;47.684;10.806;2022-09-09T00:08:53;93118.41;;;11.72;94.35
16738;BME280;17906;47.684;10.806;2022-09-09T00:11:29;93114.88;;;11.71;94.35
16738;BME280;17906;47.684;10.806;2022-09-09T00:14:00;93109.75;;;11.75;93.67
16738;BME280;17906;47.684;10.806;2022-09-09T00:16:32;93105.69;;;11.77;93.90
16738;BME280;17906;47.684;10.806;2022-09-09T00:19:06;93112.28;;;11.86;94.10
16738;BME280;17906;47.684;10.806;2022-09-09T00:21:35;93117.44;;;11.83;93.91
16738;BME280;17906;47.684;10.806;2022-09-09T00:24:10;93102.69;;;11.74;94.91
16738;BME280;17906;47.684;10.806;2022-09-09T00:26:44;93108.03;;;11.69;95.25
16738;BME280;17906;47.684;10.806;2022-09-09T00:29:18;93106.16;;;11.69;95.86
16738;BME280;17906;47.684;10.806;2022-09-09T00:31:47;93104.56;;;11.73;95.00
16738;BME280;17906;47.684;10.806;2022-09-09T00:34:18;93099.16;;;11.73;94.68
16738;BME280;17906;47.684;10.806;2022-09-09T00:36:48;93104.25;;;11.70;95.61
16738;BME280;17906;47.684;10.806;2022-09-09T00:39:27;93105.66;;;11.72;95.70
16738;BME280;17906;47.684;10.806;2022-09-09T00:42:11;93104.56;;;11.73;94.70
16738;BME280;17906;47.684;10.806;2022-09-09T00:44:51;93099.34;;;11.67;95.44
16738;BME280;17906;47.684;10.806;2022-09-09T00:47:34;93098.81;;;11.70;94.90
16738;BME280;17906;47.684;10.806;2022-09-09T00:50:17;93092.06;;;11.72;95.55
16738;BME280;17906;47.684;10.806;2022-09-09T00:52:55;93098.91;;;11.80;94.82
16738;BME280;17906;47.684;10.806;2022-09-09T00:55:28;93103.22;;;11.76;94.44
16738;BME280;17906;47.684;10.806;2022-09-09T00:58:01;93092.38;;;11.76;94.39
16738;BME280;17906;47.684;10.806;2022-09-09T01:00:29;93103.78;;;11.78;94.54
16738;BME280;17906;47.684;10.806;2022-09-09T01:03:11;93103.22;;;11.76;94.84
16738;BME280;17906;47.684;10.806;2022-09-09T01:05:46;93096.09;;;11.70;95.61
16738;BME280;17906;47.684;10.806;2022-09-09T01:08:30;93101.31;;;11.71;95.31
16738;BME280;17906;47.684;10.806;2022-09-09T01:11:01;93098.59;;;11.71;94.45
16738;BME280;17906;47.684;10.806;2022-09-09T01:13:32;93096.50;;;11.83;94.18
16738;BME280;17906;47.684;10.806;2022-09-09T01:16:01;93110.38;;;11.87;93.61
16738;BME280;17906;47.684;10.806;2022-09-09T01:18:33;93108.13;;;11.79;94.34
16738;BME280;17906;47.684;10.806;2022-09-09T01:21:06;93099.16;;;11.73;94.20
16738;BME280;17906;47.684;10.806;2022-09-09T01:23:48;93105.66;;;11.72;94.43
16738;BME280;17906;47.684;10.806;2022-09-09T01:26:30;93099.16;;;11.73;93.28
16738;BME280;17906;47.684;10.806;2022-09-09T01:29:00;93096.97;;;11.75;93.51
16738;BME280;17906;47.684;10.806;2022-09-09T01:31:29;93101.31;;;11.71;93.97
16738;BME280;17906;47.684;10.806;2022-09-09T01:33:56;93102.13;;;11.72;94.16
16738;BME280;17906;47.684;10.806;2022-09-09T01:36:27;93102.03;;;11.61;94.96
16738;BME280;17906;47.684;10.806;2022-09-09T01:38:55;93099.31;;;11.61;95.11
16738;BME280;17906;47.684;10.806;2022-09-09T01:41:22;93093.88;;;11.61;95.35
16738;BME280;17906;47.684;10.806;2022-09-09T01:43:50;93084.66;;;11.62;96.16
16738;BME280;17906;47.684;10.806;2022-09-09T01:46:18;93095.56;;;11.68;95.81
16738;BME280;17906;47.684;10.806;2022-09-09T01:48:48;93094.47;;;11.69;95.28
16738;BME280;17906;47.684;10.806;2022-09-09T01:51:16;93090.09;;;11.62;95.30
16738;BME280;17906;47.684;10.806;2022-09-09T01:53:43;93087.31;;;11.57;95.78
16738;BME280;17906;47.684;10.806;2022-09-09T01:56:21;93075.16;;;11.60;95.35
16738;BME280;17906;47.684;10.806;2022-09-09T01:59:04;93074.88;;;11.61;94.95
16738;BME280;17906;47.684;10.806;2022-09-09T02:01:43;93069.56;;;11.45;95.38
16738;BME280;17906;47.684;10.806;2022-09-09T02:04:23;93066.00;;;11.39;95.59
16738;BME280;17906;47.684;10.806;2022-09-09T02:06:55;93066.97;;;11.28;95.04
16738;BME280;17906;47.684;10.806;2022-09-09T02:09:24;93060.78;;;11.32;95.48
16738;BME280;17906;47.684;10.806;2022-09-09T02:11:59;93055.88;;;11.29;95.53
16738;BME280;17906;47.684;10.806;2022-09-09T02:14:32;93063.78;;;11.36;94.74
16738;BME280;17906;47.684;10.806;2022-09-09T02:17:03;93053.41;;;11.28;95.08
16738;BME280;17906;47.684;10.806;2022-09-09T02:19:37;93059.34;;;11.25;95.01
16738;BME280;17906;47.684;10.806;2022-09-09T02:22:06;93065.84;;;11.24;94.93
16738;BME280;17906;47.684;10.806;2022-09-09T02:24:34;93063.03;;;11.14;95.37
16738;BME280;17906;47.684;10.806;2022-09-09T02:27:05;93066.25;;;11.11;95.98
16738;BME280;17906;47.684;10.806;2022-09-09T02:29:38;93068.13;;;11.05;96.19
16738;BME280;17906;47.684;10.806;2022-09-09T02:32:09;93063.88;;;10.92;96.85
16738;BME280;17906;47.684;10.806;2022-09-09T02:34:40;93060.53;;;10.85;97.14
16738;BME280;17906;47.684;10.806;2022-09-09T02:37:09;93062.88;;;10.76;98.00
16738;BME280;17906;47.684;10.806;2022-09-09T02:39:37;93051.28;;;10.59;97.94
16738;BME280;17906;47.684;10.806;2022-09-09T02:42:04;93049.47;;;10.65;96.97
16738;BME280;17906;47.684;10.806;2022-09-09T02:44:32;93054.19;;;10.53;96.00
16738;BME280;17906;47.684;10.806;2022-09-09T02:47:14;93063.63;;;10.50;95.18
16738;BME280;17906;47.684;10.806;2022-09-09T02:49:49;93066.41;;;10.55;93.95
16738;BME280;17906;47.684;10.806;2022-09-09T02:52:26;93055.63;;;10.60;94.56
16738;BME280;17906;47.684;10.806;2022-09-09T02:55:02;93065.91;;;10.58;94.89
16738;BME280;17906;47.684;10.806;2022-09-09T02:57:32;93069.94;;;10.56;94.04
16738;BME280;17906;47.684;10.806;2022-09-09T03:00:00;93069.38;;;10.54;93.81
16738;BME280;17906;47.684;10.806;2022-09-09T03:02:28;93058.09;;;10.62;93.35
16738;BME280;17906;47.684;10.806;2022-09-09T03:04:55;93075.66;;;10.59;93.20
16738;BME280;17906;47.684;10.806;2022-09-09T03:07:22;93067.94;;;10.46;93.85
16738;BME280;17906;47.684;10.806;2022-09-09T03:09:49;93061.31;;;10.37;94.39
16738;BME280;17906;47.684;10.806;2022-09-09T03:12:16;93060.78;;;10.18;94.24
16738;BME280;17906;47.684;10.806;2022-09-09T03:14:42;93063.44;;;10.13;95.86
16738;BME280;17906;47.684;10.806;2022-09-09T03:17:11;93062.56;;;10.07;97.26
16738;BME280;17906;47.684;10.806;2022-09-09T03:19:39;93068.78;;;10.08;97.65
16738;BME280;17906;47.684;10.806;2022-09-09T03:22:06;93064.59;;;10.00;97.25
16738;BME280;17906;47.684;10.806;2022-09-09T03:24:35;93068.78;;;10.08;97.25
16738;BME280;17906;47.684;10.806;2022-09-09T03:27:01;93062.56;;;10.07;98.46
16738;BME280;17906;47.684;10.806;2022-09-09T03:29:28;93056.19;;;10.18;98.07
16738;BME280;17906;47.684;10.806;2022-09-09T03:31:55;93059.72;;;10.19;98.14
16738;BME280;17906;47.684;10.806;2022-09-09T03:34:21;93059.94;;;10.17;98.13
16738;BME280;17906;47.684;10.806;2022-09-09T03:36:49;93056.44;;;10.17;97.89
16738;BME280;17906;47.684;10.806;2022-09-09T03:39:16;93059.47;;;10.21;97.62
16738;BME280;17906;47.684;10.806;2022-09-09T03:41:42;93046.19;;;10.19;98.75
16738;BME280;17906;47.684;10.806;2022-09-09T03:44:13;93050.06;;;10.28;97.63
16738;BME280;17906;47.684;10.806;2022-09-09T03:46:39;93051.75;;;10.29;98.20
16738;BME280;17906;47.684;10.806;2022-09-09T03:49:06;93052.56;;;10.30;98.02
16738;BME280;17906;47.684;10.806;2022-09-09T03:51:33;93057.53;;;10.38;97.86
16738;BME280;17906;47.684;10.806;2022-09-09T03:54:03;93049.97;;;10.40;97.54
16738;BME280;17906;47.684;10.806;2022-09-09T03:56:30;93057.97;;;10.30;97.46
16738;BME280;17906;47.684;10.806;2022-09-09T03:58:57;93058.56;;;10.15;98.29
16738;BME280;17906;47.684;10.806;2022-09-09T04:01:23;93052.59;;;10.13;98.39
16738;BME280;17906;47.684;10.806;2022-09-09T04:03:50;93063.16;;;10.14;98.85
16738;BME280;17906;47.684;10.806;2022-09-09T04:06:18;93055.88;;;10.15;98.22
16738;BME280;17906;47.684;10.806;2022-09-09T04:08:46;93052.66;;;10.18;98.78
16738;BME280;17906;47.684;10.806;2022-09-09T04:11:15;93064.81;;;10.15;99.12
16738;BME280;17906;47.684;10.806;2022-09-09T04:13:42;93053.25;;;10.20;97.73
16738;BME280;17906;47.684;10.806;2022-09-09T04:16:11;93045.13;;;10.20;98.30
16738;BME280;17906;47.684;10.806;2022-09-09T04:18:38;93052.47;;;10.25;97.01
16738;BME280;17906;47.684;10.806;2022-09-09T04:21:05;93043.28;;;10.26;96.41
16738;BME280;17906;47.684;10.806;2022-09-09T04:23:33;93049.47;;;10.21;97.08
16738;BME280;17906;47.684;10.806;2022-09-09T04:26:01;93047.69;;;10.10;98.53
16738;BME280;17906;47.684;10.806;2022-09-09T04:28:31;93038.22;;;10.12;98.17
16738;BME280;17906;47.684;10.806;2022-09-09T04:31:04;93046.53;;;10.06;99.32
16738;BME280;17906;47.684;10.806;2022-09-09T04:33:31;93044.88;;;10.05;99.50
16738;BME280;17906;47.684;10.806;2022-09-09T04:35:57;93047.75;;;10.15;99.38
16738;BME280;17906;47.684;10.806;2022-09-09T04:38:24;93038.19;;;10.29;99.09
16738;BME280;17906;47.684;10.806;2022-09-09T04:40:52;93040.31;;;10.27;98.99
16738;BME280;17906;47.684;10.806;2022-09-09T04:43:19;93048.94;;;10.24;99.51
16738;BME280;17906;47.684;10.806;2022-09-09T04:45:48;93041.78;;;10.35;98.14
16738;BME280;17906;47.684;10.806;2022-09-09T04:48:16;93041.94;;;10.28;98.73
16738;BME280;17906;47.684;10.806;2022-09-09T04:50:42;93036.53;;;10.28;99.46
16738;BME280;17906;47.684;10.806;2022-09-09T04:53:09;93038.75;;;10.31;99.64
16738;BME280;17906;47.684;10.806;2022-09-09T04:55:36;93035.28;;;10.36;99.62
16738;BME280;17906;47.684;10.806;2022-09-09T04:58:03;93035.03;;;10.37;99.56
16738;BME280;17906;47.684;10.806;2022-09-09T05:00:31;93043.50;;;10.41;100.00
16738;BME280;17906;47.684;10.806;2022-09-09T05:03:02;93049.25;;;10.50;98.99
16738;BME280;17906;47.684;10.806;2022-09-09T05:05:29;93048.66;;;10.42;99.31
16738;BME280;17906;47.684;10.806;2022-09-09T05:08:00;93047.56;;;10.43;98.69
16738;BME280;17906;47.684;10.806;2022-09-09T05:10:28;93055.72;;;10.43;99.30
16738;BME280;17906;47.684;10.806;2022-09-09T05:12:54;93057.03;;;10.41;98.17
16738;BME280;17906;47.684;10.806;2022-09-09T05:15:21;93053.31;;;10.47;98.54
16738;BME280;17906;47.684;10.806;2022-09-09T05:17:48;93056.31;;;10.51;98.59
16738;BME280;17906;47.684;10.806;2022-09-09T05:20:16;93051.91;;;10.44;99.22
16738;BME280;17906;47.684;10.806;2022-09-09T05:22:42;93061.00;;;10.55;97.94
16738;BME280;17906;47.684;10.806;2022-09-09T05:25:09;93059.97;;;10.61;98.33
16738;BME280;17906;47.684;10.806;2022-09-09T05:27:35;93065.38;;;10.61;98.56
16738;BME280;17906;47.684;10.806;2022-09-09T05:30:03;93072.84;;;10.71;98.93
16738;BME280;17906;47.684;10.806;2022-09-09T05:32:30;93078.31;;;10.76;99.27
16738;BME280;17906;47.684;10.806;2022-09-09T05:34:59;93069.13;;;10.77;99.22
16738;BME280;17906;47.684;10.806;2022-09-09T05:37:28;93069.13;;;10.77;99.46
16738;BME280;17906;47.684;10.806;2022-09-09T05:39:55;93076.19;;;10.78;99.68
16738;BME280;17906;47.684;10.806;2022-09-09T05:42:23;93074.59;;;10.82;99.90
16738;BME280;17906;47.684;10.806;2022-09-09T05:44:49;93075.72;;;10.86;100.00
16738;BME280;17906;47.684;10.806;2022-09-09T05:47:19;93081.16;;;10.86;99.99
16738;BME280;17906;47.684;10.806;2022-09-09T05:49:45;93094.53;;;10.93;100.00
16738;BME280;17906;47.684;10.806;2022-09-09T05:52:12;93095.88;;;10.90;100.00
16738;BME280;17906;47.684;10.806;2022-09-09T05:54:40;93092.47;;;11.00;100.00
16738;BME280;17906;47.684;10.806;2022-09-09T05:57:08;93094.41;;;11.04;99.51
16738;BME280;17906;47.684;10.806;2022-09-09T05:59:35;93099.38;;;11.13;99.95
16738;BME280;17906;47.684;10.806;2022-09-09T06:02:01;93094.75;;;11.13;100.00
16738;BME280;17906;47.684;10.806;2022-09-09T06:04:28;93098.66;;;11.22;100.00
16738;BME280;17906;47.684;10.806;2022-09-09T06:06:55;93094.06;;;11.23;100.00
16738;BME280;17906;47.684;10.806;2022-09-09T06:09:22;93105.53;;;11.30;100.00
16738;BME280;17906;47.684;10.806;2022-09-09T06:11:50;93106.72;;;11.39;100.00
16738;BME280;17906;47.684;10.806;2022-09-09T06:14:16;93107.81;;;11.43;99.25
16738;BME280;17906;47.684;10.806;2022-09-09T06:16:43;93124.13;;;11.43;100.00
16738;BME280;17906;47.684;10.806;2022-09-09T06:19:11;93127.13;;;11.47;99.90
16738;BME280;17906;47.684;10.806;2022-09-09T06:21:39;93126.03;;;11.48;100.00
16738;BME280;17906;47.684;10.806;2022-09-09T06:24:07;93117.66;;;11.49;100.00
16738;BME280;17906;47.684;10.806;2022-09-09T06:26:35;93128.00;;;11.52;100.00
16738;BME280;17906;47.684;10.806;2022-09-09T06:29:04;93125.38;;;11.62;99.26
16738;BME280;17906;47.684;10.806;2022-09-09T06:31:32;93123.53;;;11.68;96.48
16738;BME280;17906;47.684;10.806;2022-09-09T06:33:59;93130.91;;;11.73;96.85
16738;BME280;17906;47.684;10.806;2022-09-09T06:36:27;93127.69;;;11.81;95.25
16738;BME280;17906;47.684;10.806;2022-09-09T06:38:54;93134.28;;;11.85;96.12
16738;BME280;17906;47.684;10.806;2022-09-09T06:41:23;93132.66;;;11.89;96.17
16738;BME280;17906;47.684;10.806;2022-09-09T06:43:50;93130.78;;;11.89;96.57
16738;BME280;17906;47.684;10.806;2022-09-09T06:46:19;93126.47;;;11.94;96.33
16738;BME280;17906;47.684;10.806;2022-09-09T06:48:47;93134.38;;;11.95;95.07
16738;BME280;17906;47.684;10.806;2022-09-09T06:51:15;93139.56;;;12.02;95.70
16738;BME280;17906;47.684;10.806;2022-09-09T06:53:44;93136.28;;;12.00;94.45
16738;BME280;17906;47.684;10.806;2022-09-09T06:56:19;93124.56;;;11.94;91.98
16738;BME280;17906;47.684;10.806;2022-09-09T06:58:47;93122.22;;;12.03;92.74
16738;BME280;17906;47.684;10.806;2022-09-09T07:01:16;93130.94;;;12.10;92.93
16738;BME280;17906;47.684;10.806;2022-09-09T07:03:46;93122.06;;;12.14;93.44
16738;BME280;17906;47.684;10.806;2022-09-09T07:06:14;93125.34;;;12.22;95.05
16738;BME280;17906;47.684;10.806;2022-09-09T07:08:42;93125.91;;;12.24;93.84
16738;BME280;17906;47.684;10.806;2022-09-09T07:11:09;93129.75;;;12.28;91.89
16738;BME280;17906;47.684;10.806;2022-09-09T07:13:36;93129.81;;;12.38;91.95
16738;BME280;17906;47.684;10.806;2022-09-09T07:16:04;93132.34;;;12.49;87.27
16738;BME280;17906;47.684;10.806;2022-09-09T07:18:31;93124.72;;;12.52;86.73
16738;BME280;17906;47.684;10.806;2022-09-09T07:21:00;93126.16;;;12.59;89.24
16738;BME280;17906;47.684;10.806;2022-09-09T07:23:27;93126.41;;;12.63;87.16
16738;BME280;17906;47.684;10.806;2022-09-09T07:25:54;93135.47;;;12.73;86.83
16738;BME280;17906;47.684;10.806;2022-09-09T07:28:21;93133.31;;;12.81;85.19
16738;BME280;17906;47.684;10.806;2022-09-09T07:30:53;93133.84;;;12.77;82.52
16738;BME280;17906;47.684;10.806;2022-09-09T07:33:20;93136.88;;;12.81;81.59
16738;BME280;17906;47.684;10.806;2022-09-09T07:35:46;93129.53;;;12.82;79.88
16738;BME280;17906;47.684;10.806;2022-09-09T07:38:14;93138.50;;;12.82;79.48
16738;BME280;17906;47.684;10.806;2022-09-09T07:40:41;93136.88;;;12.86;82.91
16738;BME280;17906;47.684;10.806;2022-09-09T07:43:08;93148.06;;;12.90;81.17
16738;BME280;17906;47.684;10.806;2022-09-09T07:45:35;93145.31;;;12.85;82.83
16738;BME280;17906;47.684;10.806;2022-09-09T07:48:02;93153.19;;;12.86;81.72
16738;BME280;17906;47.684;10.806;2022-09-09T07:50:29;93157.28;;;12.89;80.34
16738;BME280;17906;47.684;10.806;2022-09-09T07:52:56;93155.66;;;12.88;81.89
16738;BME280;17906;47.684;10.806;2022-09-09T07:55:24;93152.94;;;12.88;83.38
16738;BME280;17906;47.684;10.806;2022-09-09T07:57:52;93154.00;;;12.87;82.24
16738;BME280;17906;47.684;10.806;2022-09-09T08:00:19;93168.47;;;12.92;83.46
16738;BME280;17906;47.684;10.806;2022-09-09T08:02:47;93161.94;;;12.93;82.47
16738;BME280;17906;47.684;10.806;2022-09-09T08:05:14;93154.59;;;12.94;81.73
16738;BME280;17906;47.684;10.806;2022-09-09T08:07:42;93165.78;;;12.97;82.57
16738;BME280;17906;47.684;10.806;2022-09-09T08:10:09;93158.16;;;12.94;84.72
16738;BME280;17906;47.684;10.806;2022-09-09T08:12:37;93160.09;;;13.04;85.35
16738;BME280;17906;47.684;10.806;2022-09-09T08:15:05;93171.22;;;12.97;84.02
16738;BME280;17906;47.684;10.806;2022-09-09T08:17:31;93158.19;;;13.10;86.47
16738;BME280;17906;47.684;10.806;2022-09-09T08:19:58;93163.97;;;13.18;84.58
16738;BME280;17906;47.684;10.806;2022-09-09T08:22:30;93171.34;;;13.23;80.66
16738;BME280;17906;47.684;10.806;2022-09-09T08:24:57;93158.00;;;13.26;80.46
16738;BME280;17906;47.684;10.806;2022-09-09T08:27:23;93168.63;;;13.23;81.68
16738;BME280;17906;47.684;10.806;2022-09-09T08:29:52;93164.00;;;13.28;79.89
16738;BME280;17906;47.684;10.806;2022-09-09T08:32:18;93170.25;;;13.29;77.88
16738;BME280;17906;47.684;10.806;2022-09-09T08:34:45;93171.16;;;13.34;78.73
16738;BME280;17906;47.684;10.806;2022-09-09T08:37:11;93170.06;;;13.35;78.95
16738;BME280;17906;47.684;10.806;2022-09-09T08:39:38;93166.78;;;13.33;78.02
16738;BME280;17906;47.684;10.806;2022-09-09T08:42:24;93167.59;;;13.34;79.36
16738;BME280;17906;47.684;10.806;2022-09-09T08:45:12;93174.16;;;13.43;78.84
16738;BME280;17906;47.684;10.806;2022-09-09T08:47:47;93172.00;;;13.50;78.45
16738;BME280;17906;47.684;10.806;2022-09-09T08:50:21;93167.97;;;13.68;76.59
16738;BME280;17906;47.684;10.806;2022-09-09T08:52:54;93171.78;;;13.67;78.42
16738;BME280;17906;47.684;10.806;2022-09-09T08:55:27;93167.97;;;13.73;78.17
16738;BME280;17906;47.684;10.806;2022-09-09T08:57:58;93173.44;;;13.83;75.05
16738;BME280;17906;47.684;10.806;2022-09-09T09:00:34;93167.44;;;13.81;75.03
16738;BME280;17906;47.684;10.806;2022-09-09T09:03:10;93174.53;;;13.82;77.98
16738;BME280;17906;47.684;10.806;2022-09-09T09:05:46;93178.34;;;13.81;79.14
16738;BME280;17906;47.684;10.806;2022-09-09T09:08:19;93169.34;;;13.81;75.44
16738;BME280;17906;47.684;10.806;2022-09-09T09:10:48;93177.53;;;13.86;76.18
16738;BME280;17906;47.684;10.806;2022-09-09T09:13:18;93168.81;;;13.89;78.91
16738;BME280;17906;47.684;10.806;2022-09-09T09:15:52;93171.25;;;13.85;78.13
16738;BME280;17906;47.684;10.806;2022-09-09T09:18:21;93167.72;;;13.85;74.49
16738;BME280;17906;47.684;10.806;2022-09-09T09:21:00;93164.16;;;13.74;74.61
16738;BME280;17906;47.684;10.806;2022-09-09T09:23:37;93169.59;;;13.69;74.56
16738;BME280;17906;47.684;10.806;2022-09-09T09:26:07;93170.13;;;13.61;75.70
16738;BME280;17906;47.684;10.806;2022-09-09T09:28:36;93171.22;;;13.55;74.86
16738;BME280;17906;47.684;10.806;2022-09-09T09:31:07;93162.19;;;13.54;75.62
16738;BME280;17906;47.684;10.806;2022-09-09T09:33:43;93172.31;;;13.64;76.00
16738;BME280;17906;47.684;10.806;2022-09-09T09:36:12;93173.69;;;13.72;73.94
16738;BME280;17906;47.684;10.806;2022-09-09T09:38:51;93169.63;;;13.84;73.26
16738;BME280;17906;47.684;10.806;2022-09-09T09:41:28;93174.78;;;13.76;74.72
16738;BME280;17906;47.684;10.806;2022-09-09T09:43:55;93171.81;;;13.82;74.06
16738;BME280;17906;47.684;10.806;2022-09-09T09:46:24;93174.25;;;13.79;74.98
16738;BME280;17906;47.684;10.806;2022-09-09T09:48:59;93175.59;;;13.86;75.90
16738;BME280;17906;47.684;10.806;2022-09-09T09:51:26;93173.72;;;13.92;77.78
16738;BME280;17906;47.684;10.806;2022-09-09T09:54:08;93171.81;;;13.92;77.32
16738;BME280;17906;47.684;10.806;2022-09-09T09:56:36;93175.63;;;13.91;77.51
16738;BME280;17906;47.684;10.806;2022-09-09T09:59:02;93177.81;;;13.89;75.48
16738;BME280;17906;47.684;10.806;2022-09-09T10:01:32;93167.72;;;13.95;75.85
16738;BME280;17906;47.684;10.806;2022-09-09T10:04:00;93181.34;;;13.95;75.83
16738;BME280;17906;47.684;10.806;2022-09-09T10:06:32;93182.72;;;13.87;76.19
16738;BME280;17906;47.684;10.806;2022-09-09T10:08:59;93184.06;;;13.80;74.80
16738;BME280;17906;47.684;10.806;2022-09-09T10:11:41;93187.84;;;13.69;74.72
16738;BME280;17906;47.684;10.806;2022-09-09T10:14:16;93181.88;;;13.67;73.59
16738;BME280;17906;47.684;10.806;2022-09-09T10:16:57;93183.75;;;13.61;75.52
16738;BME280;17906;47.684;10.806;2022-09-09T10:19:30;93192.16;;;13.54;75.65
16738;BME280;17906;47.684;10.806;2022-09-09T10:22:05;93191.88;;;13.46;76.33
16738;BME280;17906;47.684;10.806;2022-09-09T10:27:32;93197.56;;;13.39;73.51
16738;BME280;17906;47.684;10.806;2022-09-09T10:30:09;93202.19;;;13.39;74.16
16738;BME280;17906;47.684;10.806;2022-09-09T10:32:44;93202.94;;;13.24;76.32
16738;BME280;17906;47.684;10.806;2022-09-09T10:35:19;93208.31;;;13.19;74.77
16738;BME280;17906;47.684;10.806;2022-09-09T10:38:20;93214.53;;;13.04;76.60
16738;BME280;17906;47.684;10.806;2022-09-09T10:41:16;93201.16;;;12.97;76.56
16738;BME280;17906;47.684;10.806;2022-09-09T10:44:00;93202.81;;;13.03;79.91
16738;BME280;17906;47.684;10.806;2022-09-09T10:46:40;93200.94;;;13.09;78.86
16738;BME280;17906;47.684;10.806;2022-09-09T10:49:20;93197.16;;;13.20;82.10
16738;BME280;17906;47.684;10.806;2022-09-09T10:51:56;93202.06;;;13.13;85.98
16738;BME280;17906;47.684;10.806;2022-09-09T10:54:32;93207.19;;;13.10;88.76
16738;BME280;17906;47.684;10.806;2022-09-09T10:57:05;93199.38;;;13.23;86.53
16738;BME280;17906;47.684;10.806;2022-09-09T10:59:38;93200.44;;;13.17;86.02
16738;BME280;17906;47.684;10.806;2022-09-09T11:02:13;93205.34;;;13.20;87.75
16738;BME280;17906;47.684;10.806;2022-09-09T11:04:48;93208.81;;;13.00;88.25
16738;BME280;17906;47.684;10.806;2022-09-09T11:07:24;93208.63;;;12.75;87.61
16738;BME280;17906;47.684;10.806;2022-09-09T11:09:56;93202.31;;;12.64;88.66
16738;BME280;17906;47.684;10.806;2022-09-09T11:12:27;93197.81;;;12.80;89.47
16738;BME280;17906;47.684;10.806;2022-09-09T11:14:59;93197.25;;;12.83;88.08
16738;BME280;17906;47.684;10.806;2022-09-09T11:17:33;93207.38;;;12.93;89.62
16738;BME280;17906;47.684;10.806;2022-09-09T11:20:05;93197.38;;;13.08;86.06
16738;BME280;17906;47.684;10.806;2022-09-09T11:22:33;93207.56;;;13.23;87.49
16738;BME280;17906;47.684;10.806;2022-09-09T11:25:06;93201.09;;;13.40;91.25
16738;BME280;17906;47.684;10.806;2022-09-09T11:27:38;93195.09;;;13.38;85.70
16738;BME280;17906;47.684;10.806;2022-09-09T11:30:16;93191.34;;;13.49;87.59
16738;BME280;17906;47.684;10.806;2022-09-09T11:33:13;93197.59;;;13.54;89.73
16738;BME280;17906;47.684;10.806;2022-09-09T11:35:54;93197.09;;;13.62;86.44
16738;BME280;17906;47.684;10.806;2022-09-09T11:38:26;93199.84;;;13.73;85.61
16738;BME280;17906;47.684;10.806;2022-09-09T11:40:55;93192.78;;;13.77;86.08
16738;BME280;17906;47.684;10.806;2022-09-09T11:43:27;93197.16;;;13.88;85.48
16738;BME280;17906;47.684;10.806;2022-09-09T11:45:57;93198.78;;;13.94;82.44
16738;BME280;17906;47.684;10.806;2022-09-09T11:48:29;93195.53;;;13.97;85.15
16738;BME280;17906;47.684;10.806;2022-09-09T11:51:01;93201.81;;;14.03;82.58
16738;BME280;17906;47.684;10.806;2022-09-09T11:53:30;93203.44;;;14.04;82.20
16738;BME280;17906;47.684;10.806;2022-09-09T11:56:11;93197.44;;;14.07;84.00
16738;BME280;17906;47.684;10.806;2022-09-09T11:58:42;93189.03;;;14.23;83.08
16738;BME280;17906;47.684;10.806;2022-09-09T12:01:27;93182.78;;;14.43;78.53
16738;BME280;17906;47.684;10.806;2022-09-09T12:06:48;93192.56;;;14.24;78.65
16738;BME280;17906;47.684;10.806;2022-09-09T12:09:22;93194.75;;;14.12;77.10
16738;BME280;17906;47.684;10.806;2022-09-09T12:11:50;93191.44;;;14.05;78.71
16738;BME280;17906;47.684;10.806;2022-09-09T12:14:21;93189.53;;;14.05;77.38
16738;BME280;17906;47.684;10.806;2022-09-09T12:16:48;93191.97;;;13.97;77.23
16738;BME280;17906;47.684;10.806;2022-09-09T12:19:18;93187.63;;;13.90;75.57
16738;BME280;17906;47.684;10.806;2022-09-09T12:21:51;93182.16;;;13.96;73.88
16738;BME280;17906;47.684;10.806;2022-09-09T12:24:27;93172.09;;;14.01;74.15
16738;BME280;17906;47.684;10.806;2022-09-09T12:27:03;93181.91;;;14.07;75.62
16738;BME280;17906;47.684;10.806;2022-09-09T12:29:39;93169.91;;;14.03;74.33
16738;BME280;17906;47.684;10.806;2022-09-09T12:32:11;93178.94;;;14.14;75.60
16738;BME280;17906;47.684;10.806;2022-09-09T12:34:40;93185.19;;;13.99;72.45
16738;BME280;17906;47.684;10.806;2022-09-09T12:37:18;93184.34;;;13.93;74.10
16738;BME280;17906;47.684;10.806;2022-09-09T12:39:51;93181.66;;;13.99;74.08
16738;BME280;17906;47.684;10.806;2022-09-09T12:42:22;93181.63;;;13.93;73.54
16738;BME280;17906;47.684;10.806;2022-09-09T12:44:56;93172.66;;;14.03;77.18
16738;BME280;17906;47.684;10.806;2022-09-09T12:47:28;93181.06;;;13.97;77.96
16738;BME280;17906;47.684;10.806;2022-09-09T12:49:57;93166.09;;;14.04;79.46
16738;BME280;17906;47.684;10.806;2022-09-09T12:52:29;93168.31;;;14.12;79.59
16738;BME280;17906;47.684;10.806;2022-09-09T12:54:58;93169.38;;;14.06;77.42
16738;BME280;17906;47.684;10.806;2022-09-09T12:57:26;93162.84;;;14.17;80.71
16738;BME280;17906;47.684;10.806;2022-09-09T13:00:06;93171.03;;;14.12;78.94
16738;BME280;17906;47.684;10.806;2022-09-09T13:02:35;93159.03;;;14.13;78.59
16738;BME280;17906;47.684;10.806;2022-09-09T13:05:15;93171.28;;;14.16;77.09
16738;BME280;17906;47.684;10.806;2022-09-09T13:07:43;93171.56;;;14.09;77.63
16738;BME280;17906;47.684;10.806;2022-09-09T13:10:11;93165.28;;;13.99;79.85
16738;BME280;17906;47.684;10.806;2022-09-09T13:12:39;93166.09;;;13.94;78.86
16738;BME280;17906;47.684;10.806;2022-09-09T13:15:14;93163.06;;;13.85;79.64